createdAt,value
2017-02-01T00:00:18.836Z,1037.14
2017-02-01T00:01:18.824Z,1037.13
2017-02-01T00:02:18.809Z,1037.12
2017-02-01T00:03:18.795Z,1037.05
2017-02-01T00:04:18.785Z,1037.05
2017-02-01T00:05:18.768Z,1037.05
2017-02-01T00:06:18.754Z,1037.04
2017-02-01T00:07:18.741Z,1037.03
2017-02-01T00:08:18.727Z,1036.97
2017-02-01T00:09:18.715Z,1036.99
2017-02-01T00:10:18.700Z,1036.93
2017-02-01T00:11:18.687Z,1036.88
2017-02-01T00:12:18.673Z,1036.9
2017-02-01T00:13:18.660Z,1036.91
2017-02-01T00:14:18.645Z,1036.95
2017-02-01T00:15:18.632Z,1036.93
2017-02-01T00:16:18.619Z,1036.9
2017-02-01T00:17:18.605Z,1036.89
2017-02-01T00:18:18.592Z,1036.91
2017-02-01T00:19:18.578Z,1036.85
2017-02-01T00:20:18.574Z,1036.85
2017-02-01T00:21:18.551Z,1036.97
2017-02-01T00:22:18.538Z,1037.06
2017-02-01T00:23:18.525Z,1037.15
2017-02-01T00:24:18.512Z,1037.16
2017-02-01T00:25:18.501Z,1037.2
2017-02-01T00:26:18.485Z,1037.18
2017-02-01T00:27:18.471Z,1037.25
2017-02-01T00:28:18.458Z,1037.27
2017-02-01T00:29:18.444Z,1037.29
2017-02-01T00:30:18.431Z,1037.28
2017-02-01T00:31:18.418Z,1037.32
2017-02-01T00:32:18.403Z,1037.37
2017-02-01T00:33:18.390Z,1037.39
2017-02-01T00:34:18.377Z,1037.45
2017-02-01T00:35:18.363Z,1037.44
2017-02-01T00:36:18.351Z,1037.43
2017-02-01T00:37:18.336Z,1037.48
2017-02-01T00:38:18.322Z,1037.46
2017-02-01T00:39:18.308Z,1037.47
2017-02-01T00:40:18.295Z,1037.47
2017-02-01T00:41:18.282Z,1037.46
2017-02-01T00:42:18.269Z,1037.45
2017-02-01T00:43:18.256Z,1037.48
2017-02-01T00:44:18.242Z,1037.5
2017-02-01T00:45:18.228Z,1037.56
2017-02-01T00:46:18.215Z,1037.52
2017-02-01T00:47:18.203Z,1037.54
2017-02-01T00:48:18.186Z,1037.6
2017-02-01T00:49:18.174Z,1037.62
2017-02-01T00:50:18.159Z,1037.68
2017-02-01T00:51:18.151Z,1037.71
2017-02-01T00:52:18.132Z,1037.74
2017-02-01T00:53:18.120Z,1037.74
2017-02-01T00:54:18.104Z,1037.73
2017-02-01T00:55:18.091Z,1037.72
2017-02-01T00:56:18.077Z,1037.72
2017-02-01T00:57:18.064Z,1037.69
2017-02-01T00:58:18.055Z,1037.69
2017-02-01T00:59:18.036Z,1037.75
2017-02-01T01:00:18.022Z,1037.77
2017-02-01T01:01:18.008Z,1037.81
2017-02-01T01:02:17.994Z,1037.77
2017-02-01T01:03:17.980Z,1037.85
2017-02-01T01:04:17.974Z,1037.9
2017-02-01T01:05:17.952Z,1037.93
2017-02-01T01:06:17.939Z,1037.98
2017-02-01T01:07:17.925Z,1038.06
2017-02-01T01:08:17.912Z,1038.03
2017-02-01T01:09:17.898Z,1038.1
2017-02-01T01:10:17.883Z,1038.07
2017-02-01T01:11:17.870Z,1038.03
2017-02-01T01:12:17.855Z,1037.98
2017-02-01T01:13:17.841Z,1037.95
2017-02-01T01:14:17.828Z,1038
2017-02-01T01:15:17.813Z,1037.99
2017-02-01T01:16:17.800Z,1038.01
2017-02-01T01:17:17.786Z,1038.01
2017-02-01T01:18:17.774Z,1037.97
2017-02-01T01:19:17.758Z,1037.95
2017-02-01T01:20:17.744Z,1037.95
2017-02-01T01:21:17.731Z,1037.94
2017-02-01T01:22:17.717Z,1037.96
2017-02-01T01:23:17.702Z,1037.95
2017-02-01T01:24:17.688Z,1037.92
2017-02-01T01:25:17.674Z,1037.9
2017-02-01T01:26:17.672Z,1037.86
2017-02-01T01:27:17.673Z,1037.83
2017-02-01T01:28:17.632Z,1037.74
2017-02-01T01:29:17.618Z,1037.68
2017-02-01T01:30:17.603Z,1037.66
2017-02-01T01:31:17.590Z,1037.67
2017-02-01T01:32:17.575Z,1037.68
2017-02-01T01:33:17.562Z,1037.69
2017-02-01T01:34:17.546Z,1037.7
2017-02-01T01:35:17.533Z,1037.71
2017-02-01T01:36:17.519Z,1037.69
2017-02-01T01:37:17.506Z,1037.59
2017-02-01T01:38:17.491Z,1037.62
2017-02-01T01:39:17.477Z,1037.63
2017-02-01T01:40:17.464Z,1037.63
2017-02-01T01:41:17.449Z,1037.65
2017-02-01T01:42:17.435Z,1037.68
2017-02-01T01:43:17.422Z,1037.71
2017-02-01T01:44:17.407Z,1037.7
2017-02-01T01:45:17.394Z,1037.71
2017-02-01T01:46:17.380Z,1037.73
2017-02-01T01:47:17.365Z,1037.69
2017-02-01T01:48:17.353Z,1037.68
2017-02-01T01:49:17.338Z,1037.66
2017-02-01T01:50:17.325Z,1037.64
2017-02-01T01:51:17.310Z,1037.69
2017-02-01T01:52:17.295Z,1037.78
2017-02-01T01:53:17.282Z,1037.83
2017-02-01T01:54:17.270Z,1037.89
2017-02-01T01:55:17.255Z,1037.88
2017-02-01T01:56:17.241Z,1037.9
2017-02-01T01:57:17.227Z,1037.88
2017-02-01T01:58:17.213Z,1037.91
2017-02-01T01:59:17.199Z,1037.95
2017-02-01T02:00:17.185Z,1037.97
2017-02-01T02:01:17.171Z,1037.95
2017-02-01T02:02:17.157Z,1037.97
2017-02-01T02:03:17.145Z,1037.96
2017-02-01T02:04:17.130Z,1037.98
2017-02-01T02:05:17.116Z,1037.99
2017-02-01T02:06:17.104Z,1038.01
2017-02-01T02:07:17.088Z,1037.97
2017-02-01T02:08:17.098Z,1037.95
2017-02-01T02:09:17.061Z,1037.87
2017-02-01T02:10:17.047Z,1037.83
2017-02-01T02:11:17.032Z,1037.78
2017-02-01T02:12:17.018Z,1037.69
2017-02-01T02:13:17.004Z,1037.67
2017-02-01T02:14:16.988Z,1037.67
2017-02-01T02:15:16.976Z,1037.68
2017-02-01T02:16:16.962Z,1037.77
2017-02-01T02:17:16.948Z,1037.81
2017-02-01T02:18:16.934Z,1037.85
2017-02-01T02:19:16.919Z,1037.93
2017-02-01T02:20:16.906Z,1037.96
2017-02-01T02:21:16.893Z,1037.99
2017-02-01T02:22:16.878Z,1038.01
2017-02-01T02:23:16.864Z,1038.07
2017-02-01T02:24:16.849Z,1038.11
2017-02-01T02:25:16.836Z,1038.14
2017-02-01T02:26:16.822Z,1038.17
2017-02-01T02:27:16.808Z,1038.17
2017-02-01T02:28:16.794Z,1038.18
2017-02-01T02:29:16.780Z,1038.18
2017-02-01T02:30:16.767Z,1038.17
2017-02-01T02:31:16.752Z,1038.18
2017-02-01T02:32:16.740Z,1038.08
2017-02-01T02:33:16.723Z,1038.05
2017-02-01T02:34:16.710Z,1038.01
2017-02-01T02:35:16.723Z,1038.03
2017-02-01T02:36:16.681Z,1037.97
2017-02-01T02:37:16.667Z,1037.97
2017-02-01T02:38:16.653Z,1037.95
2017-02-01T02:39:16.639Z,1037.92
2017-02-01T02:40:16.626Z,1037.88
2017-02-01T02:41:16.613Z,1037.91
2017-02-01T02:42:16.597Z,1037.93
2017-02-01T02:43:16.583Z,1037.87
2017-02-01T02:44:16.569Z,1037.94
2017-02-01T02:45:16.555Z,1037.87
2017-02-01T02:46:16.542Z,1037.9
2017-02-01T02:47:16.553Z,1037.88
2017-02-01T02:48:16.513Z,1037.9
2017-02-01T02:49:16.499Z,1037.92
2017-02-01T02:50:16.486Z,1037.88
2017-02-01T02:51:16.472Z,1037.84
2017-02-01T02:52:16.458Z,1037.79
2017-02-01T02:53:16.444Z,1037.8
2017-02-01T02:54:16.431Z,1037.83
2017-02-01T02:55:16.417Z,1037.82
2017-02-01T02:56:16.403Z,1037.84
2017-02-01T02:57:16.390Z,1037.9
2017-02-01T02:58:16.375Z,1037.92
2017-02-01T02:59:16.361Z,1037.94
2017-02-01T03:00:16.352Z,1037.95
2017-02-01T03:01:16.334Z,1037.98
2017-02-01T03:02:16.319Z,1037.96
2017-02-01T03:03:16.306Z,1037.94
2017-02-01T03:04:16.291Z,1037.96
2017-02-01T03:05:16.277Z,1037.96
2017-02-01T03:06:16.268Z,1037.98
2017-02-01T03:07:16.250Z,1037.95
2017-02-01T03:08:16.238Z,1037.93
2017-02-01T03:09:16.221Z,1037.92
2017-02-01T03:10:16.208Z,1037.95
2017-02-01T03:11:16.195Z,1038
2017-02-01T03:12:16.186Z,1038
2017-02-01T03:13:16.166Z,1038.04
2017-02-01T03:14:16.151Z,1038.13
2017-02-01T03:15:16.140Z,1038.17
2017-02-01T03:16:16.126Z,1038.19
2017-02-01T03:17:16.109Z,1038.18
2017-02-01T03:18:16.096Z,1038.19
2017-02-01T03:19:16.082Z,1038.21
2017-02-01T03:20:16.067Z,1038.26
2017-02-01T03:21:16.053Z,1038.22
2017-02-01T03:22:16.040Z,1038.27
2017-02-01T03:23:16.026Z,1038.25
2017-02-01T03:24:16.011Z,1038.28
2017-02-01T03:25:15.998Z,1038.3
2017-02-01T03:26:15.983Z,1038.33
2017-02-01T03:27:15.969Z,1038.35
2017-02-01T03:28:15.955Z,1038.38
2017-02-01T03:29:15.941Z,1038.37
2017-02-01T03:30:15.927Z,1038.34
2017-02-01T03:31:15.913Z,1038.35
2017-02-01T03:32:15.899Z,1038.39
2017-02-01T03:33:15.884Z,1038.38
2017-02-01T03:34:15.870Z,1038.37
2017-02-01T03:35:15.856Z,1038.44
2017-02-01T03:36:15.842Z,1038.44
2017-02-01T03:37:15.829Z,1038.44
2017-02-01T03:38:15.814Z,1038.48
2017-02-01T03:39:15.799Z,1038.43
2017-02-01T03:40:15.790Z,1038.47
2017-02-01T03:41:15.772Z,1038.47
2017-02-01T03:42:15.758Z,1038.46
2017-02-01T03:43:15.743Z,1038.42
2017-02-01T03:44:15.729Z,1038.4
2017-02-01T03:45:15.717Z,1038.42
2017-02-01T03:46:15.702Z,1038.44
2017-02-01T03:47:15.687Z,1038.43
2017-02-01T03:48:15.673Z,1038.45
2017-02-01T03:49:15.658Z,1038.48
2017-02-01T03:50:15.643Z,1038.44
2017-02-01T03:51:15.630Z,1038.47
2017-02-01T03:52:15.617Z,1038.46
2017-02-01T03:53:15.601Z,1038.54
2017-02-01T03:54:15.587Z,1038.57
2017-02-01T03:55:15.574Z,1038.59
2017-02-01T03:56:15.560Z,1038.58
2017-02-01T03:57:15.545Z,1038.6
2017-02-01T03:58:15.532Z,1038.6
2017-02-01T03:59:15.516Z,1038.62
2017-02-01T04:00:15.504Z,1038.68
2017-02-01T04:01:15.488Z,1038.67
2017-02-01T04:02:15.474Z,1038.72
2017-02-01T04:03:15.461Z,1038.69
2017-02-01T04:04:15.446Z,1038.7
2017-02-01T04:05:15.432Z,1038.72
2017-02-01T04:06:15.418Z,1038.75
2017-02-01T04:07:15.404Z,1038.75
2017-02-01T04:08:15.389Z,1038.66
2017-02-01T04:09:15.375Z,1038.69
2017-02-01T04:10:15.361Z,1038.65
2017-02-01T04:11:15.346Z,1038.65
2017-02-01T04:12:15.331Z,1038.59
2017-02-01T04:13:15.318Z,1038.64
2017-02-01T04:14:15.304Z,1038.65
2017-02-01T04:15:15.288Z,1038.69
2017-02-01T04:16:15.276Z,1038.65
2017-02-01T04:17:15.261Z,1038.66
2017-02-01T04:18:15.247Z,1038.65
2017-02-01T04:19:15.233Z,1038.68
2017-02-01T04:20:15.223Z,1038.69
2017-02-01T04:21:15.204Z,1038.73
2017-02-01T04:22:15.189Z,1038.72
2017-02-01T04:23:15.176Z,1038.69
2017-02-01T04:24:15.162Z,1038.63
2017-02-01T04:25:15.149Z,1038.62
2017-02-01T04:26:15.132Z,1038.63
2017-02-01T04:27:15.119Z,1038.67
2017-02-01T04:28:15.105Z,1038.64
2017-02-01T04:29:15.100Z,1038.69
2017-02-01T04:30:15.077Z,1038.73
2017-02-01T04:31:15.063Z,1038.71
2017-02-01T04:32:15.049Z,1038.71
2017-02-01T04:33:15.034Z,1038.77
2017-02-01T04:34:15.021Z,1038.75
2017-02-01T04:35:15.007Z,1038.74
2017-02-01T04:36:14.993Z,1038.71
2017-02-01T04:37:14.977Z,1038.68
2017-02-01T04:38:14.963Z,1038.65
2017-02-01T04:39:14.949Z,1038.61
2017-02-01T04:40:14.935Z,1038.61
2017-02-01T04:41:14.920Z,1038.54
2017-02-01T04:42:14.906Z,1038.51
2017-02-01T04:43:14.893Z,1038.52
2017-02-01T04:44:14.877Z,1038.54
2017-02-01T04:45:14.864Z,1038.55
2017-02-01T04:46:14.849Z,1038.62
2017-02-01T04:47:14.836Z,1038.62
2017-02-01T04:48:14.821Z,1038.62
2017-02-01T04:49:14.807Z,1038.58
2017-02-01T04:50:14.793Z,1038.6
2017-02-01T04:51:14.778Z,1038.57
2017-02-01T04:52:14.764Z,1038.58
2017-02-01T04:53:14.751Z,1038.56
2017-02-01T04:54:14.738Z,1038.56
2017-02-01T04:55:14.720Z,1038.49
2017-02-01T04:56:14.707Z,1038.45
2017-02-01T04:57:14.695Z,1038.47
2017-02-01T04:58:14.679Z,1038.5
2017-02-01T04:59:14.665Z,1038.49
2017-02-01T05:00:14.652Z,1038.51
2017-02-01T05:01:14.636Z,1038.48
2017-02-01T05:02:14.622Z,1038.55
2017-02-01T05:03:14.607Z,1038.56
2017-02-01T05:04:14.594Z,1038.65
2017-02-01T05:05:14.580Z,1038.71
2017-02-01T05:06:14.565Z,1038.75
2017-02-01T05:07:14.551Z,1038.75
2017-02-01T05:08:14.537Z,1038.83
2017-02-01T05:09:14.523Z,1038.94
2017-02-01T05:10:14.509Z,1038.98
2017-02-01T05:11:14.494Z,1039.02
2017-02-01T05:12:14.481Z,1039.09
2017-02-01T05:13:14.465Z,1039.12
2017-02-01T05:14:14.451Z,1039.1
2017-02-01T05:15:14.437Z,1039.13
2017-02-01T05:16:14.423Z,1039.14
2017-02-01T05:17:14.408Z,1039.2
2017-02-01T05:18:14.394Z,1039.16
2017-02-01T05:19:14.380Z,1039.18
2017-02-01T05:20:14.365Z,1039.26
2017-02-01T05:21:14.350Z,1039.29
2017-02-01T05:22:14.344Z,1039.25
2017-02-01T05:23:14.322Z,1039.29
2017-02-01T05:24:14.306Z,1039.25
2017-02-01T05:25:14.291Z,1039.23
2017-02-01T05:26:14.278Z,1039.2
2017-02-01T05:27:14.263Z,1039.13
2017-02-01T05:28:14.249Z,1039.1
2017-02-01T05:29:14.234Z,1039.12
2017-02-01T05:30:14.220Z,1039.07
2017-02-01T05:31:14.206Z,1039.11
2017-02-01T05:32:14.190Z,1039.14
2017-02-01T05:33:14.177Z,1039.14
2017-02-01T05:34:14.162Z,1039.12
2017-02-01T05:35:14.147Z,1039.12
2017-02-01T05:36:14.133Z,1039.12
2017-02-01T05:37:14.118Z,1039.13
2017-02-01T05:38:14.104Z,1039.11
2017-02-01T05:39:14.088Z,1039.14
2017-02-01T05:40:14.075Z,1039.15
2017-02-01T05:41:14.060Z,1039.11
2017-02-01T05:42:14.045Z,1039.18
2017-02-01T05:43:14.029Z,1039.19
2017-02-01T05:44:14.017Z,1039.21
2017-02-01T05:45:14.004Z,1039.28
2017-02-01T05:46:13.987Z,1039.28
2017-02-01T05:47:13.972Z,1039.25
2017-02-01T05:48:13.957Z,1039.22
2017-02-01T05:49:13.944Z,1039.22
2017-02-01T05:50:13.928Z,1039.19
2017-02-01T05:51:13.914Z,1039.18
2017-02-01T05:52:13.900Z,1039.18
2017-02-01T05:53:13.883Z,1039.18
2017-02-01T05:54:13.898Z,1039.14
2017-02-01T05:55:13.856Z,1039.11
2017-02-01T05:56:13.840Z,1039.1
2017-02-01T05:57:13.826Z,1039.1
2017-02-01T05:58:13.811Z,1039.18
2017-02-01T05:59:13.797Z,1039.13
2017-02-01T06:00:13.783Z,1039.09
2017-02-01T06:01:13.774Z,1039.03
2017-02-01T06:02:13.752Z,1039.03
2017-02-01T06:03:13.738Z,1039.05
2017-02-01T06:04:13.724Z,1039.02
2017-02-01T06:05:13.709Z,1039.05
2017-02-01T06:06:13.695Z,1039.06
2017-02-01T06:07:13.682Z,1039.07
2017-02-01T06:08:13.666Z,1039.05
2017-02-01T06:09:13.652Z,1039.08
2017-02-01T06:10:13.637Z,1039.04
2017-02-01T06:11:13.623Z,1039.03
2017-02-01T06:12:13.608Z,1039.08
2017-02-01T06:13:13.593Z,1039.14
2017-02-01T06:14:13.579Z,1039.1
2017-02-01T06:15:13.563Z,1039.11
2017-02-01T06:16:13.549Z,1039.08
2017-02-01T06:17:13.534Z,1039.07
2017-02-01T06:18:13.520Z,1039.03
2017-02-01T06:19:13.505Z,1039.03
2017-02-01T06:20:13.491Z,1039.03
2017-02-01T06:21:13.477Z,1039.03
2017-02-01T06:22:13.465Z,1039.05
2017-02-01T06:23:13.447Z,1039.1
2017-02-01T06:24:13.432Z,1039.1
2017-02-01T06:25:13.418Z,1039.11
2017-02-01T06:26:13.403Z,1039.1
2017-02-01T06:27:13.388Z,1039.09
2017-02-01T06:28:13.376Z,1039.09
2017-02-01T06:29:13.359Z,1039.13
2017-02-01T06:30:13.344Z,1039.11
2017-02-01T06:31:13.330Z,1039.14
2017-02-01T06:32:13.316Z,1039.19
2017-02-01T06:33:13.301Z,1039.23
2017-02-01T06:34:13.286Z,1039.22
2017-02-01T06:35:13.271Z,1039.19
2017-02-01T06:36:13.257Z,1039.18
2017-02-01T06:37:13.243Z,1039.18
2017-02-01T06:38:13.228Z,1039.14
2017-02-01T06:39:13.213Z,1039.16
2017-02-01T06:40:13.200Z,1039.16
2017-02-01T06:41:13.185Z,1039.18
2017-02-01T06:42:13.170Z,1039.19
2017-02-01T06:43:13.156Z,1039.24
2017-02-01T06:44:13.142Z,1039.23
2017-02-01T06:45:13.126Z,1039.24
2017-02-01T06:46:13.112Z,1039.26
2017-02-01T06:47:13.098Z,1039.25
2017-02-01T06:48:13.082Z,1039.24
2017-02-01T06:49:13.069Z,1039.25
2017-02-01T06:50:13.054Z,1039.22
2017-02-01T06:51:13.039Z,1039.23
2017-02-01T06:52:13.024Z,1039.23
2017-02-01T06:53:13.009Z,1039.28
2017-02-01T06:54:12.995Z,1039.29
2017-02-01T06:55:12.980Z,1039.28
2017-02-01T06:56:12.966Z,1039.25
2017-02-01T06:57:12.951Z,1039.2
2017-02-01T06:58:12.938Z,1039.23
2017-02-01T06:59:12.922Z,1039.28
2017-02-01T07:00:12.908Z,1039.26
2017-02-01T07:01:12.892Z,1039.25
2017-02-01T07:02:12.880Z,1039.25
2017-02-01T07:03:12.864Z,1039.19
2017-02-01T07:04:12.850Z,1039.19
2017-02-01T07:05:12.836Z,1039.24
2017-02-01T07:06:12.822Z,1039.29
2017-02-01T07:07:12.808Z,1039.28
2017-02-01T07:08:12.792Z,1039.32
2017-02-01T07:09:12.778Z,1039.37
2017-02-01T07:10:12.764Z,1039.37
2017-02-01T07:11:12.749Z,1039.35
2017-02-01T07:12:12.735Z,1039.32
2017-02-01T07:13:12.734Z,1039.3
2017-02-01T07:14:12.705Z,1039.29
2017-02-01T07:15:12.691Z,1039.29
2017-02-01T07:16:12.683Z,1039.28
2017-02-01T07:17:12.664Z,1039.27
2017-02-01T07:18:12.649Z,1039.29
2017-02-01T07:19:12.633Z,1039.25
2017-02-01T07:20:12.620Z,1039.3
2017-02-01T07:21:12.628Z,1039.25
2017-02-01T07:22:12.590Z,1039.2
2017-02-01T07:23:12.576Z,1039.21
2017-02-01T07:24:12.565Z,1039.16
2017-02-01T07:25:12.547Z,1039.15
2017-02-01T07:26:12.533Z,1039.14
2017-02-01T07:27:12.519Z,1039.14
2017-02-01T07:28:12.506Z,1039.09
2017-02-01T07:29:12.491Z,1039.12
2017-02-01T07:30:12.475Z,1039.11
2017-02-01T07:31:12.463Z,1039.1
2017-02-01T07:32:12.448Z,1039.1
2017-02-01T07:33:12.434Z,1039.1
2017-02-01T07:34:12.420Z,1039.09
2017-02-01T07:35:12.407Z,1039.02
2017-02-01T07:36:12.390Z,1039.03
2017-02-01T07:37:12.377Z,1038.99
2017-02-01T07:38:12.367Z,1038.93
2017-02-01T07:39:12.350Z,1038.85
2017-02-01T07:40:12.335Z,1038.77
2017-02-01T07:41:12.321Z,1038.73
2017-02-01T07:42:12.306Z,1038.72
2017-02-01T07:43:12.291Z,1038.69
2017-02-01T07:44:12.279Z,1038.65
2017-02-01T07:45:12.265Z,1038.62
2017-02-01T07:46:12.256Z,1038.71
2017-02-01T07:47:12.237Z,1038.68
2017-02-01T07:48:12.225Z,1038.68
2017-02-01T07:49:12.208Z,1038.64
2017-02-01T07:50:12.195Z,1038.63
2017-02-01T07:51:12.181Z,1038.56
2017-02-01T07:52:12.166Z,1038.52
2017-02-01T07:53:12.154Z,1038.47
2017-02-01T07:54:12.139Z,1038.47
2017-02-01T07:55:12.127Z,1038.36
2017-02-01T07:56:12.112Z,1038.32
2017-02-01T07:57:12.099Z,1038.28
2017-02-01T07:58:12.084Z,1038.26
2017-02-01T07:59:12.071Z,1038.23
2017-02-01T08:00:12.058Z,1038.17
2017-02-01T08:01:12.043Z,1038.19
2017-02-01T08:02:12.031Z,1038.21
2017-02-01T08:03:12.023Z,1038.22
2017-02-01T08:04:12.003Z,1038.22
2017-02-01T08:05:11.990Z,1038.22
2017-02-01T08:06:11.976Z,1038.27
2017-02-01T08:07:11.963Z,1038.27
2017-02-01T08:08:11.950Z,1038.21
2017-02-01T08:09:11.935Z,1038.22
2017-02-01T08:10:11.922Z,1038.18
2017-02-01T08:11:11.910Z,1038.11
2017-02-01T08:12:11.899Z,1038.02
2017-02-01T08:13:11.881Z,1038.03
2017-02-01T08:14:11.869Z,1037.94
2017-02-01T08:15:11.859Z,1037.9
2017-02-01T08:16:11.840Z,1037.85
2017-02-01T08:17:11.829Z,1037.86
2017-02-01T08:18:11.817Z,1037.82
2017-02-01T08:19:12.103Z,1037.82
2017-02-01T08:20:11.789Z,1037.79
2017-02-01T08:21:11.777Z,1037.75
2017-02-01T08:22:11.764Z,1037.67
2017-02-01T08:23:11.750Z,1037.65
2017-02-01T08:24:11.736Z,1037.62
2017-02-01T08:25:11.724Z,1037.6
2017-02-01T08:26:11.711Z,1037.65
2017-02-01T08:27:11.698Z,1037.62
2017-02-01T08:28:11.685Z,1037.59
2017-02-01T08:29:11.673Z,1037.57
2017-02-01T08:30:11.660Z,1037.58
2017-02-01T08:31:11.648Z,1037.57
2017-02-01T08:32:11.633Z,1037.6
2017-02-01T08:33:11.622Z,1037.61
2017-02-01T08:34:11.608Z,1037.63
2017-02-01T08:35:11.624Z,1037.67
2017-02-01T08:36:11.581Z,1037.69
2017-02-01T08:37:11.569Z,1037.73
2017-02-01T08:38:11.556Z,1037.76
2017-02-01T08:39:11.544Z,1037.75
2017-02-01T08:40:11.531Z,1037.8
2017-02-01T08:41:11.518Z,1037.83
2017-02-01T08:42:11.505Z,1037.87
2017-02-01T08:43:11.492Z,1037.89
2017-02-01T08:44:11.479Z,1037.91
2017-02-01T08:45:11.466Z,1037.91
2017-02-01T08:46:11.454Z,1037.91
2017-02-01T08:47:11.441Z,1037.91
2017-02-01T08:48:11.428Z,1037.91
2017-02-01T08:49:11.415Z,1038.02
2017-02-01T08:50:11.402Z,1038.03
2017-02-01T08:51:11.389Z,1038.06
2017-02-01T08:52:11.376Z,1038.09
2017-02-01T08:53:11.362Z,1038.06
2017-02-01T08:54:11.355Z,1038.06
2017-02-01T08:55:11.337Z,1038.01
2017-02-01T08:56:11.324Z,1037.89
2017-02-01T08:57:11.311Z,1037.85
2017-02-01T08:58:11.299Z,1037.79
2017-02-01T08:59:11.285Z,1037.76
2017-02-01T09:00:11.272Z,1037.77
2017-02-01T09:01:11.258Z,1037.76
2017-02-01T09:02:11.246Z,1037.79
2017-02-01T09:03:11.234Z,1037.8
2017-02-01T09:04:11.220Z,1037.74
2017-02-01T09:05:11.207Z,1037.66
2017-02-01T09:06:11.195Z,1037.61
2017-02-01T09:07:11.181Z,1037.59
2017-02-01T09:08:11.169Z,1037.59
2017-02-01T09:09:11.160Z,1037.57
2017-02-01T09:10:11.142Z,1037.52
2017-02-01T09:11:11.130Z,1037.46
2017-02-01T09:12:11.117Z,1037.39
2017-02-01T09:13:11.104Z,1037.4
2017-02-01T09:14:11.092Z,1037.37
2017-02-01T09:15:11.080Z,1037.37
2017-02-01T09:16:11.067Z,1037.31
2017-02-01T09:17:11.055Z,1037.33
2017-02-01T09:18:11.041Z,1037.35
2017-02-01T09:19:11.032Z,1037.35
2017-02-01T09:20:11.016Z,1037.29
2017-02-01T09:21:11.003Z,1037.28
2017-02-01T09:22:10.991Z,1037.26
2017-02-01T09:23:10.978Z,1037.24
2017-02-01T09:24:10.966Z,1037.23
2017-02-01T09:25:10.953Z,1037.23
2017-02-01T09:26:10.940Z,1037.18
2017-02-01T09:27:10.928Z,1037.11
2017-02-01T09:28:10.916Z,1037.05
2017-02-01T09:29:10.903Z,1037.09
2017-02-01T09:30:10.890Z,1037.08
2017-02-01T09:31:10.879Z,1037.1
2017-02-01T09:32:10.868Z,1037.03
2017-02-01T09:33:10.854Z,1037
2017-02-01T09:34:10.842Z,1037.03
2017-02-01T09:35:10.839Z,1037.07
2017-02-01T09:36:10.818Z,1037.09
2017-02-01T09:37:10.823Z,1037.04
2017-02-01T09:38:10.794Z,1037.02
2017-02-01T09:39:10.782Z,1036.99
2017-02-01T09:40:10.769Z,1037.03
2017-02-01T09:41:10.756Z,1037.05
2017-02-01T09:42:10.745Z,1036.98
2017-02-01T09:43:10.735Z,1036.99
2017-02-01T09:44:10.725Z,1037.04
2017-02-01T09:45:10.708Z,1037.01
2017-02-01T09:46:10.697Z,1037.02
2017-02-01T09:47:10.684Z,1037.01
2017-02-01T09:48:10.672Z,1036.95
2017-02-01T09:49:10.666Z,1036.94
2017-02-01T09:50:10.649Z,1036.96
2017-02-01T09:51:10.636Z,1036.97
2017-02-01T09:52:10.624Z,1036.96
2017-02-01T09:53:10.640Z,1036.93
2017-02-01T09:54:10.600Z,1036.87
2017-02-01T09:55:10.588Z,1036.86
2017-02-01T09:56:10.605Z,1036.88
2017-02-01T09:57:10.565Z,1036.93
2017-02-01T09:58:10.556Z,1036.97
2017-02-01T09:59:10.540Z,1036.94
2017-02-01T10:00:10.528Z,1036.97
2017-02-01T10:01:10.517Z,1036.98
2017-02-01T10:02:10.505Z,1036.97
2017-02-01T10:03:10.492Z,1037.04
2017-02-01T10:04:10.482Z,1037.05
2017-02-01T10:05:10.470Z,1037.05
2017-02-01T10:06:10.458Z,1037.02
2017-02-01T10:07:10.445Z,1037.02
2017-02-01T10:08:10.434Z,1037.02
2017-02-01T10:09:10.422Z,1036.92
2017-02-01T10:10:10.409Z,1036.93
2017-02-01T10:11:10.398Z,1036.92
2017-02-01T10:12:10.386Z,1036.87
2017-02-01T10:13:10.374Z,1036.86
2017-02-01T10:14:10.362Z,1036.89
2017-02-01T10:15:10.351Z,1036.84
2017-02-01T10:16:10.339Z,1036.92
2017-02-01T10:17:10.326Z,1036.94
2017-02-01T10:18:10.315Z,1036.91
2017-02-01T10:19:10.303Z,1036.92
2017-02-01T10:20:10.291Z,1036.87
2017-02-01T10:21:10.288Z,1036.87
2017-02-01T10:22:10.267Z,1036.85
2017-02-01T10:23:10.256Z,1036.85
2017-02-01T10:24:10.242Z,1036.73
2017-02-01T10:25:10.230Z,1036.78
2017-02-01T10:26:10.219Z,1036.78
2017-02-01T10:27:10.208Z,1036.72
2017-02-01T10:28:10.196Z,1036.78
2017-02-01T10:29:10.184Z,1036.83
2017-02-01T10:30:10.173Z,1036.8
2017-02-01T10:31:10.160Z,1036.87
2017-02-01T10:32:10.149Z,1036.92
2017-02-01T10:33:10.137Z,1036.91
2017-02-01T10:34:10.127Z,1036.97
2017-02-01T10:35:10.115Z,1036.94
2017-02-01T10:36:10.101Z,1036.97
2017-02-01T10:37:10.089Z,1036.98
2017-02-01T10:38:10.078Z,1037.03
2017-02-01T10:39:10.066Z,1037.01
2017-02-01T10:40:10.053Z,1037.08
2017-02-01T10:41:10.041Z,1037.09
2017-02-01T10:42:10.028Z,1037.07
2017-02-01T10:43:10.018Z,1037
2017-02-01T10:44:10.005Z,1036.99
2017-02-01T10:45:09.994Z,1036.93
2017-02-01T10:46:09.980Z,1036.94
2017-02-01T10:47:09.970Z,1036.91
2017-02-01T10:48:09.958Z,1036.9
2017-02-01T10:49:09.946Z,1036.86
2017-02-01T10:50:09.932Z,1036.84
2017-02-01T10:51:09.924Z,1036.79
2017-02-01T10:52:09.911Z,1036.79
2017-02-01T10:53:09.897Z,1036.76
2017-02-01T10:54:09.886Z,1036.76
2017-02-01T10:55:09.875Z,1036.81
2017-02-01T10:56:09.862Z,1036.77
2017-02-01T10:57:09.849Z,1036.8
2017-02-01T10:58:09.838Z,1036.81
2017-02-01T10:59:09.826Z,1036.84
2017-02-01T11:00:09.813Z,1036.84
2017-02-01T11:01:09.801Z,1036.87
2017-02-01T11:02:09.790Z,1036.76
2017-02-01T11:03:09.778Z,1036.68
2017-02-01T11:04:09.766Z,1036.55
2017-02-01T11:05:09.754Z,1036.52
2017-02-01T11:06:09.741Z,1036.41
2017-02-01T11:07:09.734Z,1036.27
2017-02-01T11:08:09.719Z,1036.22
2017-02-01T11:09:09.706Z,1036.21
2017-02-01T11:10:09.694Z,1036.18
2017-02-01T11:11:09.682Z,1036.16
2017-02-01T11:12:09.670Z,1036.12
2017-02-01T11:13:09.660Z,1036.12
2017-02-01T11:14:09.652Z,1036.08
2017-02-01T11:15:09.639Z,1036.05
2017-02-01T11:16:09.623Z,1036.05
2017-02-01T11:17:09.613Z,1036.05
2017-02-01T11:18:09.601Z,1036.04
2017-02-01T11:19:09.587Z,1036.01
2017-02-01T11:20:09.578Z,1036.06
2017-02-01T11:21:09.567Z,1035.98
2017-02-01T11:22:09.559Z,1035.92
2017-02-01T11:23:09.543Z,1035.86
2017-02-01T11:24:09.531Z,1035.79
2017-02-01T11:25:09.521Z,1035.75
2017-02-01T11:26:09.508Z,1035.76
2017-02-01T11:27:09.496Z,1035.75
2017-02-01T11:28:09.486Z,1035.74
2017-02-01T11:29:09.476Z,1035.73
2017-02-01T11:30:09.462Z,1035.67
2017-02-01T11:31:09.451Z,1035.65
2017-02-01T11:32:09.441Z,1035.63
2017-02-01T11:33:09.428Z,1035.62
2017-02-01T11:34:09.418Z,1035.67
2017-02-01T11:35:09.406Z,1035.65
2017-02-01T11:36:09.396Z,1035.67
2017-02-01T11:37:09.384Z,1035.68
2017-02-01T11:38:09.380Z,1035.64
2017-02-01T11:39:09.362Z,1035.63
2017-02-01T11:40:09.351Z,1035.64
2017-02-01T11:41:09.339Z,1035.66
2017-02-01T11:42:09.330Z,1035.71
2017-02-01T11:43:09.317Z,1035.7
2017-02-01T11:44:09.305Z,1035.76
2017-02-01T11:45:09.294Z,1035.72
2017-02-01T11:46:09.284Z,1035.7
2017-02-01T11:47:09.273Z,1035.62
2017-02-01T11:48:09.261Z,1035.54
2017-02-01T11:49:09.250Z,1035.5
2017-02-01T11:50:09.238Z,1035.46
2017-02-01T11:51:09.228Z,1035.45
2017-02-01T11:52:09.222Z,1035.4
2017-02-01T11:53:09.205Z,1035.36
2017-02-01T11:54:09.196Z,1035.29
2017-02-01T11:55:09.188Z,1035.31
2017-02-01T11:56:09.178Z,1035.28
2017-02-01T11:57:09.162Z,1035.3
2017-02-01T11:58:09.150Z,1035.23
2017-02-01T11:59:09.144Z,1035.17
2017-02-01T12:00:09.132Z,1035.17
2017-02-01T12:01:09.118Z,1035.21
2017-02-01T12:02:09.106Z,1035.19
2017-02-01T12:03:09.096Z,1035.2
2017-02-01T12:04:09.084Z,1035.27
2017-02-01T12:05:09.073Z,1035.3
2017-02-01T12:06:09.061Z,1035.34
2017-02-01T12:07:09.056Z,1035.34